createdAt,value
2023-02-06T00:00:31.651Z,94.07
2023-02-06T00:01:31.633Z,94.38
2023-02-06T00:02:31.648Z,93.97
2023-02-06T00:03:31.619Z,94.07
2023-02-06T00:04:31.606Z,94.07
2023-02-06T00:05:31.629Z,94.12
2023-02-06T00:06:31.572Z,94.07
2023-02-06T00:07:31.578Z,93.87
2023-02-06T00:08:31.550Z,94.07
2023-02-06T00:09:31.544Z,93.87
2023-02-06T00:10:31.557Z,94.28
2023-02-06T00:11:31.525Z,94.07
2023-02-06T00:12:31.510Z,94.28
2023-02-06T00:13:31.497Z,93.97
2023-02-06T00:14:31.508Z,94.22
2023-02-06T00:15:31.503Z,94.18
2023-02-06T00:16:31.472Z,94.07
2023-02-06T00:17:31.449Z,93.76
2023-02-06T00:18:31.439Z,94.49
2023-02-06T00:19:31.442Z,93.97
2023-02-06T00:20:31.430Z,94.18
2023-02-06T00:21:31.423Z,94.07
2023-02-06T00:22:31.396Z,94.28
2023-02-06T00:23:31.391Z,94.43
2023-02-06T00:24:31.374Z,94.84
2023-02-06T00:25:31.374Z,94.80
2023-02-06T00:26:31.395Z,94.64
2023-02-06T00:27:31.348Z,94.70
2023-02-06T00:28:31.327Z,94.74
2023-02-06T00:29:31.320Z,94.22
2023-02-06T00:30:31.386Z,94.12
2023-02-06T00:31:31.344Z,94.12
2023-02-06T00:32:31.352Z,94.32
2023-02-06T00:33:31.325Z,94.43
2023-02-06T00:34:31.267Z,94.53
2023-02-06T00:35:31.269Z,94.22
2023-02-06T00:36:31.242Z,93.91
2023-02-06T00:37:31.248Z,93.91
2023-02-06T00:38:31.224Z,94.43
2023-02-06T00:39:31.214Z,94.43
2023-02-06T00:40:31.238Z,94.32
2023-02-06T00:41:31.196Z,93.91
2023-02-06T00:42:31.194Z,94.32
2023-02-06T00:43:31.188Z,94.06
2023-02-06T00:44:31.180Z,94.06
2023-02-06T00:45:31.160Z,94.22
2023-02-06T00:46:31.202Z,94.22
2023-02-06T00:47:31.124Z,94.26
2023-02-06T00:48:31.130Z,94.32
2023-02-06T00:49:31.102Z,94.22
2023-02-06T00:50:31.095Z,94.01
2023-02-06T00:51:31.080Z,94.06
2023-02-06T00:52:31.068Z,94.53
2023-02-06T00:53:31.072Z,94.32
2023-02-06T00:54:31.049Z,94.43
2023-02-06T00:55:31.043Z,93.95
2023-02-06T00:56:31.027Z,94.53
2023-02-06T00:57:31.018Z,94.37
2023-02-06T00:58:31.022Z,94.47
2023-02-06T00:59:31.001Z,94.16
2023-02-06T01:00:30.981Z,94.26
2023-02-06T01:01:30.995Z,93.85
2023-02-06T01:02:30.991Z,94.26
2023-02-06T01:03:30.989Z,94.16
2023-02-06T01:04:30.941Z,94.16
2023-02-06T01:05:30.923Z,94.26
2023-02-06T01:06:30.915Z,94.31
2023-02-06T01:07:30.900Z,94.31
2023-02-06T01:08:30.889Z,94.31
2023-02-06T01:09:30.912Z,93.99
2023-02-06T01:10:30.870Z,94.10
2023-02-06T01:11:30.862Z,94.31
2023-02-06T01:12:30.846Z,94.20
2023-02-06T01:13:30.843Z,94.20
2023-02-06T01:14:30.822Z,94.31
2023-02-06T01:15:30.808Z,94.24
2023-02-06T01:16:30.806Z,93.99
2023-02-06T01:17:30.789Z,94.31
2023-02-06T01:18:30.792Z,94.10
2023-02-06T01:19:30.780Z,93.99
2023-02-06T01:20:30.749Z,93.99
2023-02-06T01:21:30.747Z,94.51
2023-02-06T01:22:30.724Z,94.06
2023-02-06T01:23:30.727Z,94.93
2023-02-06T01:24:30.709Z,95.20
2023-02-06T01:25:30.715Z,94.57
2023-02-06T01:26:30.693Z,95.40
2023-02-06T01:27:30.671Z,95.45
2023-02-06T01:28:30.656Z,94.89
2023-02-06T01:29:30.655Z,94.99
2023-02-06T01:30:30.673Z,95.14
2023-02-06T01:31:30.695Z,94.93
2023-02-06T01:32:30.626Z,94.93
2023-02-06T01:33:30.609Z,95.03
2023-02-06T01:34:30.659Z,94.93
2023-02-06T01:35:30.596Z,94.93
2023-02-06T01:36:30.636Z,94.93
2023-02-06T01:37:30.588Z,95.14
2023-02-06T01:38:30.570Z,95.14
2023-02-06T01:39:30.578Z,94.93
2023-02-06T01:40:30.528Z,95.14
2023-02-06T01:41:30.536Z,95.03
2023-02-06T01:42:30.522Z,94.82
2023-02-06T01:43:30.504Z,95.03
2023-02-06T01:44:30.481Z,95.14
2023-02-06T01:45:30.475Z,95.03
2023-02-06T01:46:30.548Z,95.45
2023-02-06T01:47:30.447Z,95.25
2023-02-06T01:48:30.456Z,95.35
2023-02-06T01:49:30.427Z,95.25
2023-02-06T01:50:30.453Z,95.66
2023-02-06T01:51:30.411Z,95.45
2023-02-06T01:52:30.391Z,95.56
2023-02-06T01:53:30.382Z,95.39
2023-02-06T01:54:30.372Z,95.45
2023-02-06T01:55:30.371Z,95.14
2023-02-06T01:56:30.368Z,95.14
2023-02-06T01:57:30.336Z,95.18
2023-02-06T01:58:30.333Z,95.39
2023-02-06T01:59:30.315Z,95.39
2023-02-06T02:00:30.366Z,95.39
2023-02-06T02:01:30.296Z,95.50
2023-02-06T02:02:30.295Z,95.50
2023-02-06T02:03:30.274Z,95.18
2023-02-06T02:04:30.275Z,95.29
2023-02-06T02:05:30.263Z,95.35
2023-02-06T02:06:30.265Z,95.29
2023-02-06T02:07:30.235Z,95.18
2023-02-06T02:08:30.216Z,94.98
2023-02-06T02:09:30.206Z,94.98
2023-02-06T02:10:30.211Z,95.18
2023-02-06T02:11:30.185Z,95.08
2023-02-06T02:12:30.178Z,95.18
2023-02-06T02:13:30.162Z,95.08
2023-02-06T02:14:30.155Z,95.02
2023-02-06T02:15:30.150Z,95.02
2023-02-06T02:16:30.200Z,95.02
2023-02-06T02:17:30.136Z,95.18
2023-02-06T02:18:30.109Z,95.23
2023-02-06T02:19:30.104Z,95.02
2023-02-06T02:20:30.088Z,95.08
2023-02-06T02:21:30.101Z,95.54
2023-02-06T02:22:30.097Z,95.02
2023-02-06T02:23:30.066Z,95.54
2023-02-06T02:24:31.828Z,95.33
2023-02-06T02:25:30.032Z,95.54
2023-02-06T02:26:30.038Z,95.48
2023-02-06T02:27:30.010Z,95.43
2023-02-06T02:28:30.130Z,94.92
2023-02-06T02:29:29.986Z,95.12
2023-02-06T02:30:30.014Z,95.02
2023-02-06T02:31:37.165Z,95.33
2023-02-06T02:32:29.958Z,95.43
2023-02-06T02:33:29.942Z,95.43
2023-02-06T02:34:29.952Z,95.64
2023-02-06T02:35:29.920Z,95.64
2023-02-06T02:36:29.930Z,95.54
2023-02-06T02:37:29.902Z,95.79
2023-02-06T02:38:29.917Z,95.43
2023-02-06T02:39:29.887Z,95.43
2023-02-06T02:40:29.881Z,95.43
2023-02-06T02:41:29.878Z,95.02
2023-02-06T02:42:29.863Z,95.17
2023-02-06T02:43:29.835Z,95.17
2023-02-06T02:44:29.831Z,95.48
2023-02-06T02:45:29.854Z,95.27
2023-02-06T02:46:29.808Z,94.96
2023-02-06T02:47:29.791Z,94.48
2023-02-06T02:48:29.778Z,94.69
2023-02-06T02:49:29.798Z,94.37
2023-02-06T02:50:29.753Z,94.48
2023-02-06T02:51:29.770Z,94.64
2023-02-06T02:52:29.728Z,95.00
2023-02-06T02:53:29.715Z,94.79
2023-02-06T02:54:29.729Z,94.48
2023-02-06T02:55:29.694Z,95.10
2023-02-06T02:56:29.690Z,95.62
2023-02-06T02:57:29.684Z,94.90
2023-02-06T02:58:29.667Z,95.17
2023-02-06T02:59:29.648Z,95.31
2023-02-06T03:00:29.637Z,95.06
2023-02-06T03:01:29.631Z,95.10
2023-02-06T03:02:29.633Z,95.21
2023-02-06T03:03:29.636Z,95.31
2023-02-06T03:04:29.596Z,95.52
2023-02-06T03:05:29.588Z,95.31
2023-02-06T03:06:29.585Z,95.48
2023-02-06T03:07:29.575Z,95.42
2023-02-06T03:08:29.558Z,95.48
2023-02-06T03:09:29.546Z,95.27
2023-02-06T03:10:29.550Z,95.27
2023-02-06T03:11:29.512Z,95.37
2023-02-06T03:12:29.504Z,95.48
2023-02-06T03:13:29.514Z,95.48
2023-02-06T03:14:29.495Z,95.17
2023-02-06T03:15:29.471Z,95.54
2023-02-06T03:16:29.503Z,95.95
2023-02-06T03:17:29.444Z,96.16
2023-02-06T03:18:29.449Z,95.85
2023-02-06T03:19:29.427Z,95.48
2023-02-06T03:20:29.435Z,95.85
2023-02-06T03:21:29.408Z,95.75
2023-02-06T03:22:29.396Z,95.95
2023-02-06T03:23:29.383Z,95.95
2023-02-06T03:24:29.373Z,96.06
2023-02-06T03:25:29.369Z,96.69
2023-02-06T03:26:29.377Z,96.89
2023-02-06T03:27:29.342Z,96.79
2023-02-06T03:28:29.335Z,96.79
2023-02-06T03:29:29.328Z,96.06
2023-02-06T03:30:29.341Z,97.31
2023-02-06T03:31:29.344Z,96.58
2023-02-06T03:32:29.292Z,96.26
2023-02-06T03:33:29.271Z,96.48
2023-02-06T03:34:29.284Z,96.37
2023-02-06T03:35:29.258Z,96.48
2023-02-06T03:36:29.239Z,96.48
2023-02-06T03:37:29.218Z,96.58
2023-02-06T03:38:29.222Z,96.79
2023-02-06T03:39:29.201Z,96.69
2023-02-06T03:40:29.200Z,96.79
2023-02-06T03:41:29.190Z,96.69
2023-02-06T03:42:29.200Z,96.89
2023-02-06T03:43:29.155Z,96.58
2023-02-06T03:44:29.147Z,96.62
2023-02-06T03:45:29.172Z,96.79
2023-02-06T03:46:29.129Z,96.69
2023-02-06T03:47:29.120Z,96.06
2023-02-06T03:48:29.104Z,96.79
2023-02-06T03:49:29.090Z,96.69
2023-02-06T03:50:29.086Z,96.06
2023-02-06T03:51:29.073Z,96.37
2023-02-06T03:52:29.075Z,96.37
2023-02-06T03:53:29.048Z,96.42
2023-02-06T03:54:29.053Z,96.62
2023-02-06T03:55:29.038Z,96.42
2023-02-06T03:56:29.027Z,96.21
2023-02-06T03:57:29.037Z,96.83
2023-02-06T03:58:29.015Z,96.73
2023-02-06T03:59:28.996Z,96.94
2023-02-06T04:00:28.976Z,96.73
2023-02-06T04:01:28.995Z,96.62
2023-02-06T04:02:28.982Z,96.83
2023-02-06T04:03:28.951Z,96.94
2023-02-06T04:04:29.072Z,96.73
2023-02-06T04:05:28.921Z,96.83
2023-02-06T04:06:28.911Z,96.73
2023-02-06T04:07:28.894Z,97.14
2023-02-06T04:08:28.897Z,96.73
2023-02-06T04:09:28.881Z,96.73
2023-02-06T04:10:28.864Z,96.83
2023-02-06T04:11:28.866Z,96.83
2023-02-06T04:12:28.851Z,96.31
2023-02-06T04:13:28.824Z,96.31
2023-02-06T04:14:28.838Z,96.31
2023-02-06T04:15:28.810Z,96.42
2023-02-06T04:16:28.822Z,96.31
2023-02-06T04:17:46.425Z,96.42
2023-02-06T04:18:29.772Z,96.52
2023-02-06T04:19:28.767Z,96.42
2023-02-06T04:20:28.753Z,96.21
2023-02-06T04:21:28.761Z,97.25
2023-02-06T04:22:28.735Z,96.42
2023-02-06T04:23:28.720Z,96.21
2023-02-06T04:24:30.885Z,96.73
2023-02-06T04:25:28.712Z,96.31
2023-02-06T04:26:28.711Z,97.14
2023-02-06T04:27:28.677Z,97.14
2023-02-06T04:28:28.677Z,97.14
2023-02-06T04:29:28.657Z,96.67
2023-02-06T04:30:28.725Z,96.73
2023-02-06T04:31:28.701Z,96.83
2023-02-06T04:32:28.618Z,96.73
2023-02-06T04:33:28.637Z,96.77
2023-02-06T04:34:28.596Z,96.11
2023-02-06T04:35:28.585Z,96.67
2023-02-06T04:36:28.577Z,96.73
2023-02-06T04:37:28.562Z,97.30
2023-02-06T04:38:28.565Z,96.83
2023-02-06T04:39:28.559Z,96.42
2023-02-06T04:40:28.531Z,96.31
2023-02-06T04:41:28.516Z,97.25
2023-02-06T04:42:28.508Z,97.14
2023-02-06T04:43:28.500Z,97.40
2023-02-06T04:44:28.508Z,97.40
2023-02-06T04:45:28.474Z,97.50
2023-02-06T04:46:28.544Z,97.30
2023-02-06T04:47:28.493Z,97.25
2023-02-06T04:48:28.477Z,97.19
2023-02-06T04:49:28.427Z,97.09
2023-02-06T04:50:28.428Z,97.50
2023-02-06T04:51:28.410Z,97.61
2023-02-06T04:52:28.395Z,97.50
2023-02-06T04:53:28.386Z,97.46
2023-02-06T04:54:28.391Z,97.40
2023-02-06T04:55:28.369Z,97.92
2023-02-06T04:56:28.356Z,97.88
2023-02-06T04:57:28.350Z,97.77
2023-02-06T04:58:28.326Z,97.71
2023-02-06T04:59:28.329Z,97.88
2023-02-06T05:00:28.330Z,97.88
2023-02-06T05:01:28.357Z,97.77
2023-02-06T05:02:28.343Z,97.98
2023-02-06T05:03:28.276Z,97.77
2023-02-06T05:04:28.284Z,98.19
2023-02-06T05:05:28.244Z,98.08
2023-02-06T05:06:28.238Z,98.39
2023-02-06T05:07:28.222Z,98.29
2023-02-06T05:08:28.227Z,99.07
2023-02-06T05:09:28.206Z,99.07
2023-02-06T05:10:28.198Z,99.07
2023-02-06T05:11:28.178Z,99.07
2023-02-06T05:12:28.188Z,98.86
2023-02-06T05:13:28.148Z,99.07
2023-02-06T05:14:28.158Z,98.96
2023-02-06T05:15:28.129Z,98.55
2023-02-06T05:16:28.132Z,98.96
2023-02-06T05:17:28.145Z,98.96
2023-02-06T05:18:28.163Z,99.07
2023-02-06T05:19:28.092Z,99.27
2023-02-06T05:20:28.096Z,99.48
2023-02-06T05:21:28.064Z,99.69
2023-02-06T05:22:28.056Z,99.07
2023-02-06T05:23:28.047Z,99.07
2023-02-06T05:24:28.042Z,99.07
2023-02-06T05:25:28.030Z,99.38
2023-02-06T05:26:28.007Z,99.48
2023-02-06T05:27:28.001Z,99.59
2023-02-06T05:28:28.009Z,99.80
2023-02-06T05:29:27.987Z,99.80
2023-02-06T05:30:27.961Z,99.48
2023-02-06T05:31:28.092Z,99.69
2023-02-06T05:32:27.944Z,99.69
2023-02-06T05:33:27.934Z,99.69
2023-02-06T05:34:27.954Z,99.48
2023-02-06T05:35:27.903Z,99.95
2023-02-06T05:36:27.915Z,99.74
2023-02-06T05:37:27.902Z,99.95
2023-02-06T05:38:27.893Z,99.63
2023-02-06T05:39:27.876Z,99.95
2023-02-06T05:40:27.851Z,99.22
2023-02-06T05:41:27.840Z,99.43
2023-02-06T05:42:27.835Z,99.43
2023-02-06T05:43:27.832Z,99.48
2023-02-06T05:44:27.821Z,99.01
2023-02-06T05:45:27.794Z,99.74
2023-02-06T05:46:27.849Z,99.32
2023-02-06T05:47:27.774Z,99.43
2023-02-06T05:48:27.772Z,99.43
2023-02-06T05:49:27.779Z,99.48
2023-02-06T05:50:27.767Z,99.43
2023-02-06T05:51:27.735Z,99.63
2023-02-06T05:52:27.721Z,99.99
2023-02-06T05:53:27.711Z,99.99
2023-02-06T05:54:27.716Z,99.84
2023-02-06T05:55:27.704Z,99.89
2023-02-06T05:56:27.688Z,99.99
2023-02-06T05:57:27.661Z,99.99
2023-02-06T05:58:27.657Z,99.99
2023-02-06T05:59:27.654Z,99.89
2023-02-06T06:00:27.630Z,99.99
2023-02-06T06:01:27.651Z,99.99
2023-02-06T06:02:27.622Z,99.99
2023-02-06T06:03:27.600Z,99.99
2023-02-06T06:04:27.608Z,99.99
2023-02-06T06:05:27.598Z,99.99
2023-02-06T06:06:27.736Z,99.89
2023-02-06T06:07:27.569Z,99.99
2023-02-06T06:08:27.551Z,99.99
2023-02-06T06:09:27.540Z,99.99
2023-02-06T06:10:27.536Z,99.99
2023-02-06T06:11:27.523Z,99.99
2023-02-06T06:12:27.501Z,99.99
2023-02-06T06:13:27.499Z,99.99
2023-02-06T06:14:27.496Z,99.99
2023-02-06T06:15:27.476Z,99.99
2023-02-06T06:16:27.459Z,99.99
2023-02-06T06:17:27.472Z,99.99
2023-02-06T06:18:27.436Z,99.99
2023-02-06T06:19:27.441Z,99.99
2023-02-06T06:20:27.435Z,99.99
2023-02-06T06:21:27.404Z,99.99
2023-02-06T06:22:27.420Z,99.99
2023-02-06T06:23:27.384Z,99.99
2023-02-06T06:24:27.383Z,99.99
2023-02-06T06:25:27.363Z,99.99
2023-02-06T06:26:27.372Z,99.99
2023-02-06T06:27:27.350Z,99.99
2023-02-06T06:28:27.327Z,99.99
2023-02-06T06:29:27.324Z,99.99
2023-02-06T06:30:27.308Z,99.99
2023-02-06T06:31:27.365Z,99.99
2023-02-06T06:32:27.292Z,99.99
2023-02-06T06:33:27.285Z,99.99
2023-02-06T06:34:27.272Z,99.99
2023-02-06T06:35:27.289Z,99.99
2023-02-06T06:36:27.231Z,99.99
2023-02-06T06:37:27.224Z,99.99
2023-02-06T06:38:27.270Z,99.99
2023-02-06T06:39:27.203Z,99.99
2023-02-06T06:40:27.207Z,99.99
2023-02-06T06:41:27.189Z,99.99
2023-02-06T06:42:27.171Z,99.99
2023-02-06T06:43:27.164Z,99.99
2023-02-06T06:44:27.148Z,99.99
2023-02-06T06:45:27.195Z,99.99
2023-02-06T06:46:27.122Z,99.99
2023-02-06T06:47:27.119Z,99.99
2023-02-06T06:48:27.113Z,99.99
2023-02-06T06:49:28.978Z,99.99
2023-02-06T06:50:27.096Z,99.99
2023-02-06T06:51:27.084Z,99.99
2023-02-06T06:52:27.058Z,99.99
2023-02-06T06:53:27.056Z,99.99
2023-02-06T06:54:27.057Z,99.99
2023-02-06T06:55:27.029Z,99.99
2023-02-06T06:56:27.031Z,99.99
2023-02-06T06:57:27.006Z,99.99
2023-02-06T06:58:27.001Z,99.99
2023-02-06T06:59:27.000Z,99.99
2023-02-06T07:00:26.971Z,99.99
2023-02-06T07:01:27.057Z,99.99
2023-02-06T07:02:26.961Z,99.99
2023-02-06T07:03:26.955Z,99.99
2023-02-06T07:04:26.924Z,99.99
2023-02-06T07:05:26.929Z,99.99
2023-02-06T07:06:26.904Z,99.99
2023-02-06T07:07:26.955Z,99.99
2023-02-06T07:08:26.895Z,99.99
2023-02-06T07:09:26.881Z,99.99
2023-02-06T07:10:26.884Z,99.99
2023-02-06T07:11:26.867Z,99.99
2023-02-06T07:12:26.835Z,99.99
2023-02-06T07:13:26.843Z,99.99
2023-02-06T07:14:26.835Z,99.99
2023-02-06T07:15:26.811Z,99.99
2023-02-06T07:16:26.846Z,99.99
2023-02-06T07:17:26.779Z,99.99
2023-02-06T07:18:26.766Z,99.99
2023-02-06T07:19:26.791Z,99.99
2023-02-06T07:20:26.756Z,99.99
2023-02-06T07:21:26.759Z,99.99
2023-02-06T07:22:26.741Z,99.99
2023-02-06T07:23:26.724Z,99.99
2023-02-06T07:24:26.719Z,99.99
2023-02-06T07:25:26.691Z,99.99
2023-02-06T07:26:26.704Z,99.99
2023-02-06T07:27:26.677Z,99.99
2023-02-06T07:28:26.657Z,99.99
2023-02-06T07:29:26.652Z,99.99
2023-02-06T07:30:26.683Z,99.99
2023-02-06T07:31:26.767Z,99.99
2023-02-06T07:32:26.618Z,99.99
2023-02-06T07:33:26.607Z,99.99
2023-02-06T07:34:26.593Z,99.99
2023-02-06T07:35:26.587Z,99.99
2023-02-06T07:36:26.582Z,99.99
2023-02-06T07:37:26.572Z,99.99
2023-02-06T07:38:26.549Z,99.99
2023-02-06T07:39:26.540Z,99.99
2023-02-06T07:40:33.768Z,99.99
2023-02-06T07:41:27.529Z,99.99
2023-02-06T07:42:26.546Z,99.99
2023-02-06T07:43:26.501Z,99.99
2023-02-06T07:44:26.484Z,99.99
2023-02-06T07:45:26.471Z,99.99
2023-02-06T07:46:26.495Z,99.99
2023-02-06T07:47:26.454Z,99.99
2023-02-06T07:48:26.446Z,99.99
2023-02-06T07:49:26.428Z,99.99
2023-02-06T07:50:26.498Z,99.99
2023-02-06T07:51:26.409Z,99.99
2023-02-06T07:52:26.408Z,99.99
2023-02-06T07:53:26.399Z,99.99
2023-02-06T07:54:26.389Z,99.99
2023-02-06T07:55:26.360Z,99.99
2023-02-06T07:56:26.346Z,99.99
2023-02-06T07:57:26.339Z,99.99
2023-02-06T07:58:26.384Z,99.99
2023-02-06T07:59:26.325Z,99.99
2023-02-06T08:00:26.352Z,99.99
2023-02-06T08:01:26.346Z,99.99
2023-02-06T08:02:26.293Z,99.99
2023-02-06T08:03:26.277Z,99.99
2023-02-06T08:04:26.320Z,99.99
2023-02-06T08:05:26.300Z,99.99
2023-02-06T08:06:26.260Z,99.99
2023-02-06T08:07:26.228Z,99.99
2023-02-06T08:08:26.223Z,99.99
2023-02-06T08:09:26.246Z,99.99
2023-02-06T08:10:26.193Z,99.99
2023-02-06T08:11:26.206Z,99.99
2023-02-06T08:12:26.177Z,99.99
2023-02-06T08:13:26.170Z,99.99
2023-02-06T08:14:26.180Z,99.99
2023-02-06T08:15:26.137Z,99.99
2023-02-06T08:16:26.179Z,99.99
2023-02-06T08:17:26.129Z,99.99
2023-02-06T08:18:26.109Z,99.99
2023-02-06T08:19:26.110Z,99.99
2023-02-06T08:20:26.092Z,99.99
2023-02-06T08:21:26.080Z,99.99
2023-02-06T08:22:26.058Z,99.99
2023-02-06T08:23:26.055Z,99.99
2023-02-06T08:24:26.073Z,99.99
2023-02-06T08:25:26.036Z,99.99
2023-02-06T08:26:26.029Z,99.99
2023-02-06T08:27:26.019Z,99.99
2023-02-06T08:28:25.992Z,99.99
2023-02-06T08:29:25.982Z,99.99
2023-02-06T08:30:26.093Z,99.99
2023-02-06T08:31:26.210Z,99.99
2023-02-06T08:32:33.068Z,99.99
2023-02-06T08:33:25.983Z,99.99
2023-02-06T08:34:25.950Z,99.99
2023-02-06T08:35:25.954Z,99.99
2023-02-06T08:36:25.942Z,99.99
2023-02-06T08:37:25.902Z,99.99
2023-02-06T08:38:25.879Z,99.99
2023-02-06T08:39:25.877Z,99.99
2023-02-06T08:40:25.868Z,99.99
2023-02-06T08:41:25.856Z,99.99
2023-02-06T08:42:25.848Z,99.99
2023-02-06T08:43:25.824Z,99.99
2023-02-06T08:44:25.811Z,99.99
2023-02-06T08:45:25.806Z,99.99
2023-02-06T08:46:25.987Z,99.99
2023-02-06T08:47:25.784Z,99.99
2023-02-06T08:48:25.766Z,99.99
2023-02-06T08:49:25.764Z,99.99
2023-02-06T08:50:25.749Z,99.99
2023-02-06T08:51:25.750Z,99.99
2023-02-06T08:52:25.758Z,99.99
2023-02-06T08:53:25.715Z,99.99
2023-02-06T08:54:25.715Z,99.99
2023-02-06T08:55:25.692Z,99.99
2023-02-06T08:56:25.681Z,99.99
2023-02-06T08:57:25.687Z,99.99
2023-02-06T08:58:25.686Z,99.99
2023-02-06T08:59:25.654Z,99.99
2023-02-06T09:00:25.649Z,99.99
2023-02-06T09:01:25.652Z,99.99
2023-02-06T09:02:25.676Z,99.99
2023-02-06T09:03:25.617Z,99.99
2023-02-06T09:04:25.589Z,99.99
2023-02-06T09:05:25.604Z,99.99
2023-02-06T09:06:25.573Z,99.99
2023-02-06T09:07:25.560Z,99.99
2023-02-06T09:08:25.549Z,99.99
2023-02-06T09:09:25.538Z,99.99
2023-02-06T09:10:27.658Z,99.99
2023-02-06T09:11:25.528Z,99.99
2023-02-06T09:12:25.510Z,99.99
2023-02-06T09:13:25.493Z,99.99
2023-02-06T09:14:25.492Z,99.99
2023-02-06T09:15:25.474Z,99.99
2023-02-06T09:16:25.573Z,99.99
2023-02-06T09:17:25.469Z,99.99
2023-02-06T09:18:25.455Z,99.99
2023-02-06T09:19:25.461Z,99.99
2023-02-06T09:20:25.413Z,99.99
2023-02-06T09:21:25.408Z,99.99
2023-02-06T09:22:25.387Z,99.99
2023-02-06T09:23:25.391Z,99.99
2023-02-06T09:24:25.368Z,99.99
2023-02-06T09:25:25.365Z,99.99
2023-02-06T09:26:25.350Z,99.99
2023-02-06T09:27:25.360Z,99.99
2023-02-06T09:28:25.386Z,99.99
2023-02-06T09:29:25.332Z,99.99
2023-02-06T09:30:25.325Z,99.99
2023-02-06T09:31:25.320Z,99.99
2023-02-06T09:32:25.294Z,99.99
2023-02-06T09:33:25.275Z,99.99
2023-02-06T09:34:25.270Z,99.99
2023-02-06T09:35:25.260Z,99.99
2023-02-06T09:36:25.236Z,99.99
2023-02-06T09:37:25.226Z,99.99
2023-02-06T09:38:25.244Z,99.99
2023-02-06T09:39:25.235Z,99.99
2023-02-06T09:40:25.189Z,99.99
2023-02-06T09:41:25.187Z,99.99
2023-02-06T09:42:25.179Z,99.99
2023-02-06T09:43:25.160Z,99.99
2023-02-06T09:44:25.178Z,99.99
2023-02-06T09:45:25.130Z,99.99
2023-02-06T09:46:25.192Z,99.99
2023-02-06T09:47:25.126Z,99.99
2023-02-06T09:48:25.106Z,99.99
2023-02-06T09:49:25.106Z,99.99
2023-02-06T09:50:25.103Z,99.99
2023-02-06T09:51:25.112Z,99.99
2023-02-06T09:52:25.058Z,99.99
2023-02-06T09:53:25.051Z,99.99
2023-02-06T09:54:25.050Z,99.99
2023-02-06T09:55:25.039Z,99.99
2023-02-06T09:56:25.042Z,99.99
2023-02-06T09:57:25.013Z,99.99
2023-02-06T09:58:24.983Z,99.99
2023-02-06T09:59:24.995Z,99.99
2023-02-06T10:00:24.962Z,99.99
2023-02-06T10:01:24.979Z,99.99
2023-02-06T10:02:24.958Z,99.99
2023-02-06T10:03:24.962Z,99.99
2023-02-06T10:04:24.999Z,99.99
2023-02-06T10:05:24.909Z,99.99
2023-02-06T10:06:24.990Z,99.99
2023-02-06T10:07:24.890Z,99.99
2023-02-06T10:08:24.895Z,99.99
2023-02-06T10:09:24.872Z,99.99
2023-02-06T10:10:24.874Z,99.99
2023-02-06T10:11:24.851Z,99.99
2023-02-06T10:12:24.843Z,99.99
2023-02-06T10:13:24.824Z,99.99
2023-02-06T10:14:24.818Z,99.99
2023-02-06T10:15:24.794Z,99.99
2023-02-06T10:16:24.824Z,99.99
2023-02-06T10:17:24.789Z,99.99
2023-02-06T10:18:24.797Z,99.99
2023-02-06T10:19:24.764Z,99.99
2023-02-06T10:20:24.746Z,99.99
2023-02-06T10:21:24.740Z,99.99
2023-02-06T10:22:24.749Z,99.99
2023-02-06T10:23:24.718Z,99.99
2023-02-06T10:24:24.697Z,99.99
2023-02-06T10:25:24.693Z,99.99
2023-02-06T10:26:24.675Z,99.99
2023-02-06T10:27:24.669Z,99.99
2023-02-06T10:28:24.661Z,99.99
2023-02-06T10:29:24.649Z,99.96
2023-02-06T10:30:24.655Z,99.99
2023-02-06T10:31:24.791Z,99.96
2023-02-06T10:32:24.610Z,99.99
2023-02-06T10:33:25.993Z,99.92
2023-02-06T10:34:24.607Z,99.92
2023-02-06T10:35:24.608Z,99.99
2023-02-06T10:36:24.569Z,99.99
2023-02-06T10:37:24.562Z,99.99
2023-02-06T10:38:24.579Z,99.61
2023-02-06T10:39:24.544Z,99.77
2023-02-06T10:40:24.554Z,99.77
2023-02-06T10:41:24.515Z,99.93
2023-02-06T10:42:24.557Z,99.62
2023-02-06T10:43:24.492Z,99.62
2023-02-06T10:44:24.497Z,99.41
2023-02-06T10:45:24.479Z,99.52
2023-02-06T10:46:24.478Z,99.31
2023-02-06T10:47:24.452Z,99.52
2023-02-06T10:48:24.451Z,99.62
2023-02-06T10:49:24.446Z,99.72
2023-02-06T10:50:24.421Z,99.62
2023-02-06T10:51:24.408Z,99.62
2023-02-06T10:52:24.401Z,99.41
2023-02-06T10:53:24.383Z,98.90
2023-02-06T10:54:24.419Z,98.90
2023-02-06T10:55:24.363Z,98.69
2023-02-06T10:56:24.373Z,98.64
2023-02-06T10:57:24.358Z,98.64
2023-02-06T10:58:24.349Z,98.64
2023-02-06T10:59:24.352Z,99.01
2023-02-06T11:00:24.369Z,99.01
2023-02-06T11:01:26.717Z,98.60
2023-02-06T11:02:24.497Z,98.49
2023-02-06T11:03:24.344Z,98.34
2023-02-06T11:04:24.286Z,98.61
2023-02-06T11:05:24.252Z,98.82
2023-02-06T11:06:24.267Z,98.82
2023-02-06T11:07:24.226Z,99.02
2023-02-06T11:08:24.238Z,98.87
2023-02-06T11:09:24.222Z,98.56
2023-02-06T11:10:24.211Z,98.35
2023-02-06T11:11:24.179Z,98.25
2023-02-06T11:12:24.194Z,98.35
2023-02-06T11:13:24.174Z,97.88
2023-02-06T11:14:25.148Z,97.78
2023-02-06T11:15:24.148Z,97.78
2023-02-06T11:16:24.181Z,98.40
2023-02-06T11:17:24.112Z,97.74
2023-02-06T11:18:24.114Z,97.74
2023-02-06T11:19:24.117Z,97.74
2023-02-06T11:20:24.118Z,98.62
2023-02-06T11:21:24.069Z,97.59
2023-02-06T11:22:24.061Z,98.52
2023-02-06T11:23:24.067Z,97.44
2023-02-06T11:24:24.046Z,98.47
2023-02-06T11:25:24.033Z,98.11
2023-02-06T11:26:24.096Z,97.91
2023-02-06T11:27:24.006Z,97.86
2023-02-06T11:28:24.067Z,98.07
2023-02-06T11:29:23.982Z,97.30
2023-02-06T11:30:24.055Z,97.20
2023-02-06T11:31:24.005Z,97.09
2023-02-06T11:32:23.965Z,96.99
2023-02-06T11:33:23.949Z,96.74
2023-02-06T11:34:23.971Z,96.99
2023-02-06T11:35:23.953Z,96.89
2023-02-06T11:36:23.926Z,96.69
2023-02-06T11:37:23.901Z,96.48
2023-02-06T11:38:23.903Z,96.48
2023-02-06T11:39:23.882Z,96.48
2023-02-06T11:40:24.068Z,96.79
2023-02-06T11:41:23.873Z,96.52
2023-02-06T11:42:23.904Z,96.21
2023-02-06T11:43:23.834Z,95.90
2023-02-06T11:44:23.825Z,96.11
2023-02-06T11:45:23.822Z,95.74
2023-02-06T11:46:23.790Z,96.83
2023-02-06T11:47:23.828Z,96.42
2023-02-06T11:48:23.832Z,96.62
2023-02-06T11:49:23.763Z,96.73
2023-02-06T11:50:23.776Z,96.37
2023-02-06T11:51:23.733Z,96.37
2023-02-06T11:52:23.727Z,96.11
2023-02-06T11:53:23.717Z,96.06
2023-02-06T11:54:23.702Z,97.09
2023-02-06T11:55:23.700Z,96.48
2023-02-06T11:56:23.689Z,96.52
2023-02-06T11:57:23.684Z,96.52
2023-02-06T11:58:23.695Z,96.42
2023-02-06T11:59:23.663Z,96.47
2023-02-06T12:00:23.688Z,96.52
2023-02-06T12:01:23.672Z,96.42
2023-02-06T12:02:23.709Z,96.73
2023-02-06T12:03:23.662Z,96.31
2023-02-06T12:04:23.721Z,96.52
2023-02-06T12:05:23.594Z,97.04
2023-02-06T12:06:23.573Z,96.58
2023-02-06T12:07:23.562Z,96.74
2023-02-06T12:08:23.552Z,96.64
2023-02-06T12:09:23.545Z,96.02
2023-02-06T12:10:23.544Z,96.44
2023-02-06T12:11:23.537Z,96.44
2023-02-06T12:12:23.525Z,96.44
2023-02-06T12:13:23.497Z,95.71
2023-02-06T12:14:23.503Z,95.92
2023-02-06T12:15:44.889Z,95.71
2023-02-06T12:16:24.535Z,96.02
2023-02-06T12:17:23.479Z,96.12
2023-02-06T12:18:23.456Z,96.02
2023-02-06T12:19:23.430Z,95.81
2023-02-06T12:20:25.278Z,95.92
2023-02-06T12:21:23.419Z,96.08
2023-02-06T12:22:23.420Z,95.71
2023-02-06T12:23:23.407Z,96.08
2023-02-06T12:24:23.410Z,95.00
2023-02-06T12:25:23.362Z,96.03
2023-02-06T12:26:23.379Z,95.21
2023-02-06T12:27:23.363Z,94.80
2023-02-06T12:28:23.390Z,94.55
2023-02-06T12:29:23.350Z,94.80
2023-02-06T12:30:23.323Z,94.34
2023-02-06T12:31:23.444Z,94.38
2023-02-06T12:32:23.304Z,94.08
2023-02-06T12:33:23.276Z,94.38
2023-02-06T12:34:23.257Z,94.24
2023-02-06T12:35:23.255Z,94.38
2023-02-06T12:36:23.238Z,94.28
2023-02-06T12:37:23.237Z,94.24
2023-02-06T12:38:23.317Z,94.38
2023-02-06T12:39:23.213Z,93.87
2023-02-06T12:40:23.200Z,93.56
2023-02-06T12:41:23.186Z,93.56
2023-02-06T12:42:23.194Z,93.25
2023-02-06T12:43:23.171Z,93.77
2023-02-06T12:44:23.167Z,93.98
2023-02-06T12:45:23.150Z,93.77
2023-02-06T12:46:23.207Z,93.98
2023-02-06T12:47:23.112Z,93.60
2023-02-06T12:48:23.099Z,93.19
2023-02-06T12:49:23.113Z,93.60
2023-02-06T12:50:23.078Z,93.09
2023-02-06T12:51:23.062Z,93.81
2023-02-06T12:52:23.106Z,93.60